sensor_id;sensor_type;location;lat;lon;timestamp;pressure;altitude;pressure_sealevel;temperature;humidity
42587;BME280;28216;53.362;-6.288;2023-06-22T00:01:30;101629.06;;;18.53;100.00
42587;BME280;28216;53.362;-6.288;2023-06-22T00:03:56;101622.47;;;18.49;100.00
42587;BME280;28216;53.362;-6.288;2023-06-22T00:06:29;101620.22;;;18.46;100.00
42587;BME280;28216;53.362;-6.288;2023-06-22T00:09:02;101612.00;;;18.41;100.00
42587;BME280;28216;53.362;-6.288;2023-06-22T00:11:30;101621.16;;;18.38;100.00
42587;BME280;28216;53.362;-6.288;2023-06-22T00:14:01;101626.66;;;18.37;100.00
42587;BME280;28216;53.362;-6.288;2023-06-22T00:16:28;101626.66;;;18.37;100.00
42587;BME280;28216;53.362;-6.288;2023-06-22T00:19:06;101616.41;;;18.34;100.00
42587;BME280;28216;53.362;-6.288;2023-06-22T00:21:49;101627.03;;;18.34;100.00
42587;BME280;28216;53.362;-6.288;2023-06-22T00:24:35;101631.91;;;18.30;100.00
42587;BME280;28216;53.362;-6.288;2023-06-22T00:27:05;101633.28;;;18.26;100.00
42587;BME280;28216;53.362;-6.288;2023-06-22T00:29:31;101635.50;;;18.23;100.00
42587;BME280;28216;53.362;-6.288;2023-06-22T00:32:09;101636.50;;;18.22;100.00
42587;BME280;28216;53.362;-6.288;2023-06-22T00:34:37;101637.88;;;18.18;100.00
42587;BME280;28216;53.362;-6.288;2023-06-22T00:37:03;101635.81;;;18.13;100.00
42587;BME280;28216;53.362;-6.288;2023-06-22T00:39:41;101638.00;;;18.09;100.00
42587;BME280;28216;53.362;-6.288;2023-06-22T00:42:09;101634.91;;;18.06;100.00
42587;BME280;28216;53.362;-6.288;2023-06-22T00:44:40;101638.94;;;18.02;100.00
42587;BME280;28216;53.362;-6.288;2023-06-22T00:47:06;101637.47;;;17.99;100.00
42587;BME280;28216;53.362;-6.288;2023-06-22T00:49:36;101644.53;;;17.92;100.00
42587;BME280;28216;53.362;-6.288;2023-06-22T00:52:02;101649.97;;;17.84;100.00
42587;BME280;28216;53.362;-6.288;2023-06-22T00:54:30;101654.16;;;17.78;100.00
42587;BME280;28216;53.362;-6.288;2023-06-22T00:56:59;101652.69;;;17.76;100.00
42587;BME280;28216;53.362;-6.288;2023-06-22T00:59:27;101654.59;;;17.67;100.00
42587;BME280;28216;53.362;-6.288;2023-06-22T01:01:53;101660.44;;;17.63;100.00
42587;BME280;28216;53.362;-6.288;2023-06-22T01:04:24;101657.50;;;17.58;100.00
42587;BME280;28216;53.362;-6.288;2023-06-22T01:07:38;101665.66;;;17.56;100.00
42587;BME280;28216;53.362;-6.288;2023-06-22T01:13:23;101667.75;;;17.46;100.00
42587;BME280;28216;53.362;-6.288;2023-06-22T01:18:45;101671.03;;;17.33;100.00
42587;BME280;28216;53.362;-6.288;2023-06-22T01:21:20;101671.13;;;17.25;100.00
42587;BME280;28216;53.362;-6.288;2023-06-22T01:26:53;101662.53;;;17.23;100.00
42587;BME280;28216;53.362;-6.288;2023-06-22T01:29:28;101672.19;;;17.16;100.00
42587;BME280;28216;53.362;-6.288;2023-06-22T01:31:57;101671.19;;;17.17;100.00
42587;BME280;28216;53.362;-6.288;2023-06-22T01:34:36;101680.16;;;17.16;100.00
42587;BME280;28216;53.362;-6.288;2023-06-22T01:37:05;101681.16;;;17.15;100.00
42587;BME280;28216;53.362;-6.288;2023-06-22T01:39:34;101678.03;;;17.11;100.00
42587;BME280;28216;53.362;-6.288;2023-06-22T01:42:13;101689.78;;;17.09;100.00
42587;BME280;28216;53.362;-6.288;2023-06-22T01:44:42;101689.16;;;17.07;100.00
42587;BME280;28216;53.362;-6.288;2023-06-22T01:47:11;101694.44;;;17.07;100.00
42587;BME280;28216;53.362;-6.288;2023-06-22T01:49:42;101684.38;;;17.02;100.00
42587;BME280;28216;53.362;-6.288;2023-06-22T01:52:11;101680.91;;;17.02;100.00
42587;BME280;28216;53.362;-6.288;2023-06-22T01:54:39;101690.50;;;17.03;100.00
42587;BME280;28216;53.362;-6.288;2023-06-22T01:57:08;101691.69;;;17.00;100.00
42587;BME280;28216;53.362;-6.288;2023-06-22T01:59:35;101695.34;;;16.99;100.00
42587;BME280;28216;53.362;-6.288;2023-06-22T02:02:07;101702.09;;;17.02;100.00
42587;BME280;28216;53.362;-6.288;2023-06-22T02:05:05;101699.09;;;17.05;100.00
42587;BME280;28216;53.362;-6.288;2023-06-22T02:07:34;101693.22;;;16.95;100.00
42587;BME280;28216;53.362;-6.288;2023-06-22T02:10:15;101703.34;;;16.91;100.00
42587;BME280;28216;53.362;-6.288;2023-06-22T02:12:47;101695.94;;;16.87;100.00
42587;BME280;28216;53.362;-6.288;2023-06-22T02:15:14;101707.72;;;16.84;100.00
42587;BME280;28216;53.362;-6.288;2023-06-22T02:17:48;101706.72;;;16.85;100.00
42587;BME280;28216;53.362;-6.288;2023-06-22T02:20:14;101705.88;;;16.84;100.00
42587;BME280;28216;53.362;-6.288;2023-06-22T02:22:40;101702.94;;;16.79;100.00
42587;BME280;28216;53.362;-6.288;2023-06-22T02:25:06;101707.59;;;16.77;100.00
42587;BME280;28216;53.362;-6.288;2023-06-22T02:27:31;101701.00;;;16.73;100.00
42587;BME280;28216;53.362;-6.288;2023-06-22T02:29:57;101717.25;;;16.70;100.00
42587;BME280;28216;53.362;-6.288;2023-06-22T02:32:33;101715.13;;;16.66;100.00
42587;BME280;28216;53.362;-6.288;2023-06-22T02:34:59;101721.38;;;16.65;100.00
42587;BME280;28216;53.362;-6.288;2023-06-22T02:37:36;101720.56;;;16.64;100.00
42587;BME280;28216;53.362;-6.288;2023-06-22T02:40:07;101715.28;;;16.64;100.00
42587;BME280;28216;53.362;-6.288;2023-06-22T02:42:34;101718.63;;;16.58;100.00
42587;BME280;28216;53.362;-6.288;2023-06-22T02:45:06;101715.31;;;16.56;100.00
42587;BME280;28216;53.362;-6.288;2023-06-22T02:47:42;101716.97;;;16.57;100.00
42587;BME280;28216;53.362;-6.288;2023-06-22T02:50:08;101714.03;;;16.52;100.00
42587;BME280;28216;53.362;-6.288;2023-06-22T02:52:37;101717.66;;;16.51;100.00
42587;BME280;28216;53.362;-6.288;2023-06-22T02:55:06;101721.66;;;16.47;100.00
42587;BME280;28216;53.362;-6.288;2023-06-22T02:57:34;101730.25;;;16.49;100.00
42587;BME280;28216;53.362;-6.288;2023-06-22T03:00:02;101729.44;;;16.48;100.00
42587;BME280;28216;53.362;-6.288;2023-06-22T03:02:45;101729.31;;;16.42;100.00
42587;BME280;28216;53.362;-6.288;2023-06-22T03:05:11;101731.66;;;16.37;100.00
42587;BME280;28216;53.362;-6.288;2023-06-22T03:07:56;101725.19;;;16.39;100.00
42587;BME280;28216;53.362;-6.288;2023-06-22T03:10:24;101727.00;;;16.39;100.00
42587;BME280;28216;53.362;-6.288;2023-06-22T03:12:52;101726.53;;;16.35;100.00
42587;BME280;28216;53.362;-6.288;2023-06-22T03:15:18;101725.69;;;16.35;100.00
42587;BME280;28216;53.362;-6.288;2023-06-22T03:17:45;101730.16;;;16.34;100.00
42587;BME280;28216;53.362;-6.288;2023-06-22T03:20:14;101726.53;;;16.35;100.00
42587;BME280;28216;53.362;-6.288;2023-06-22T03:22:41;101729.84;;;16.29;100.00
42587;BME280;28216;53.362;-6.288;2023-06-22T03:25:09;101725.53;;;16.28;100.00
42587;BME280;28216;53.362;-6.288;2023-06-22T03:27:41;101726.88;;;16.24;100.00
42587;BME280;28216;53.362;-6.288;2023-06-22T03:30:15;101727.75;;;16.16;100.00
42587;BME280;28216;53.362;-6.288;2023-06-22T03:32:43;101723.81;;;16.12;100.00
42587;BME280;28216;53.362;-6.288;2023-06-22T03:35:09;101724.13;;;16.09;100.00
42587;BME280;28216;53.362;-6.288;2023-06-22T03:37:35;101726.78;;;16.09;100.00
42587;BME280;28216;53.362;-6.288;2023-06-22T03:40:12;101727.44;;;16.11;100.00
42587;BME280;28216;53.362;-6.288;2023-06-22T03:42:47;101728.78;;;16.07;100.00
42587;BME280;28216;53.362;-6.288;2023-06-22T03:45:15;101730.94;;;16.04;100.00
42587;BME280;28216;53.362;-6.288;2023-06-22T03:47:44;101725.81;;;16.02;100.00
42587;BME280;28216;53.362;-6.288;2023-06-22T03:50:12;101728.00;;;15.99;100.00
42587;BME280;28216;53.362;-6.288;2023-06-22T03:52:53;101724.34;;;16.00;100.00
42587;BME280;28216;53.362;-6.288;2023-06-22T03:55:24;101729.47;;;16.01;100.00
42587;BME280;28216;53.362;-6.288;2023-06-22T03:57:49;101733.59;;;16.04;100.00
42587;BME280;28216;53.362;-6.288;2023-06-22T04:00:17;101741.84;;;16.09;100.00
42587;BME280;28216;53.362;-6.288;2023-06-22T04:02:45;101735.06;;;16.06;100.00
42587;BME280;28216;53.362;-6.288;2023-06-22T04:05:16;101745.66;;;16.06;100.00
42587;BME280;28216;53.362;-6.288;2023-06-22T04:07:51;101741.19;;;16.07;100.00
42587;BME280;28216;53.362;-6.288;2023-06-22T04:10:17;101743.66;;;16.08;100.00
42587;BME280;28216;53.362;-6.288;2023-06-22T04:12:45;101738.72;;;16.05;100.00
42587;BME280;28216;53.362;-6.288;2023-06-22T04:15:21;101748.78;;;16.10;100.00
42587;BME280;28216;53.362;-6.288;2023-06-22T04:17:46;101746.78;;;16.12;100.00
42587;BME280;28216;53.362;-6.288;2023-06-22T04:20:12;101746.44;;;16.15;100.00
42587;BME280;28216;53.362;-6.288;2023-06-22T04:22:43;101751.38;;;16.18;100.00
42587;BME280;28216;53.362;-6.288;2023-06-22T04:25:08;101755.69;;;16.19;100.00
42587;BME280;28216;53.362;-6.288;2023-06-22T04:27:41;101755.69;;;16.19;100.00
42587;BME280;28216;53.362;-6.288;2023-06-22T04:30:14;101751.88;;;16.21;100.00
42587;BME280;28216;53.362;-6.288;2023-06-22T04:32:48;101758.81;;;16.23;100.00
42587;BME280;28216;53.362;-6.288;2023-06-22T04:35:24;101758.81;;;16.23;100.00
42587;BME280;28216;53.362;-6.288;2023-06-22T04:37:49;101757.16;;;16.21;100.00
42587;BME280;28216;53.362;-6.288;2023-06-22T04:40:21;101765.28;;;16.20;100.00
42587;BME280;28216;53.362;-6.288;2023-06-22T04:42:47;101768.91;;;16.19;100.00
42587;BME280;28216;53.362;-6.288;2023-06-22T04:45:18;101772.56;;;16.18;100.00
42587;BME280;28216;53.362;-6.288;2023-06-22T04:47:46;101763.63;;;16.19;100.00
42587;BME280;28216;53.362;-6.288;2023-06-22T04:50:15;101770.88;;;16.25;100.00
42587;BME280;28216;53.362;-6.288;2023-06-22T04:52:48;101766.38;;;16.34;100.00
42587;BME280;28216;53.362;-6.288;2023-06-22T04:55:14;101764.41;;;16.36;100.00
42587;BME280;28216;53.362;-6.288;2023-06-22T04:57:47;101764.38;;;16.44;100.00
42587;BME280;28216;53.362;-6.288;2023-06-22T05:00:21;101769.63;;;16.52;100.00
42587;BME280;28216;53.362;-6.288;2023-06-22T05:02:48;101765.75;;;16.63;100.00
42587;BME280;28216;53.362;-6.288;2023-06-22T05:05:14;101774.50;;;16.71;100.00
42587;BME280;28216;53.362;-6.288;2023-06-22T05:07:44;101769.47;;;16.84;100.00
42587;BME280;28216;53.362;-6.288;2023-06-22T05:10:18;101770.34;;;17.00;100.00
42587;BME280;28216;53.362;-6.288;2023-06-22T05:12:52;101767.59;;;17.16;100.00
42587;BME280;28216;53.362;-6.288;2023-06-22T05:15:25;101764.44;;;17.35;100.00
42587;BME280;28216;53.362;-6.288;2023-06-22T05:18:03;101770.63;;;17.51;100.00
42587;BME280;28216;53.362;-6.288;2023-06-22T05:20:30;101759.97;;;17.73;100.00
42587;BME280;28216;53.362;-6.288;2023-06-22T05:22:56;101773.09;;;17.90;100.00
42587;BME280;28216;53.362;-6.288;2023-06-22T05:25:21;101773.00;;;18.13;100.00
42587;BME280;28216;53.362;-6.288;2023-06-22T05:27:50;101776.34;;;18.36;100.00
42587;BME280;28216;53.362;-6.288;2023-06-22T05:30:18;101779.81;;;18.51;100.00
42587;BME280;28216;53.362;-6.288;2023-06-22T05:32:46;101774.88;;;18.63;100.00
42587;BME280;28216;53.362;-6.288;2023-06-22T05:35:12;101774.09;;;18.84;100.00
42587;BME280;28216;53.362;-6.288;2023-06-22T05:37:37;101769.41;;;19.07;100.00
42587;BME280;28216;53.362;-6.288;2023-06-22T05:40:03;101770.28;;;19.57;100.00
42587;BME280;28216;53.362;-6.288;2023-06-22T05:42:30;101768.50;;;19.64;100.00
42587;BME280;28216;53.362;-6.288;2023-06-22T05:44:58;101765.59;;;19.93;100.00
42587;BME280;28216;53.362;-6.288;2023-06-22T05:47:26;101766.84;;;19.97;100.00
42587;BME280;28216;53.362;-6.288;2023-06-22T05:49:55;101767.56;;;20.13;100.00
42587;BME280;28216;53.362;-6.288;2023-06-22T05:52:23;101763.66;;;20.50;100.00
42587;BME280;28216;53.362;-6.288;2023-06-22T05:54:53;101763.91;;;20.75;100.00
42587;BME280;28216;53.362;-6.288;2023-06-22T05:57:19;101761.44;;;20.60;100.00
42587;BME280;28216;53.362;-6.288;2023-06-22T05:59:47;101762.47;;;20.72;100.00
42587;BME280;28216;53.362;-6.288;2023-06-22T06:02:14;101755.31;;;20.79;100.00
42587;BME280;28216;53.362;-6.288;2023-06-22T06:04:45;101765.25;;;21.25;100.00
42587;BME280;28216;53.362;-6.288;2023-06-22T06:07:15;101770.53;;;21.91;100.00
42587;BME280;28216;53.362;-6.288;2023-06-22T06:09:43;101760.09;;;22.47;100.00
42587;BME280;28216;53.362;-6.288;2023-06-22T06:12:09;101764.72;;;22.20;100.00
42587;BME280;28216;53.362;-6.288;2023-06-22T06:14:34;101771.28;;;22.31;100.00
42587;BME280;28216;53.362;-6.288;2023-06-22T06:23:31;101767.25;;;22.54;100.00
42587;BME280;28216;53.362;-6.288;2023-06-22T06:25:56;101763.69;;;22.66;100.00
42587;BME280;28216;53.362;-6.288;2023-06-22T06:28:25;101762.84;;;23.10;100.00
42587;BME280;28216;53.362;-6.288;2023-06-22T06:30:50;101761.09;;;23.91;100.00
42587;BME280;28216;53.362;-6.288;2023-06-22T06:33:17;101769.25;;;23.53;100.00
42587;BME280;28216;53.362;-6.288;2023-06-22T06:35:43;101759.72;;;24.18;100.00
42587;BME280;28216;53.362;-6.288;2023-06-22T06:38:11;101759.28;;;24.21;100.00
42587;BME280;28216;53.362;-6.288;2023-06-22T06:40:37;101765.00;;;24.43;100.00
42587;BME280;28216;53.362;-6.288;2023-06-22T06:43:04;101761.97;;;24.99;100.00
42587;BME280;28216;53.362;-6.288;2023-06-22T06:45:30;101772.75;;;25.23;100.00
42587;BME280;28216;53.362;-6.288;2023-06-22T06:48:05;101777.78;;;24.89;100.00
42587;BME280;28216;53.362;-6.288;2023-06-22T06:50:49;101776.34;;;25.05;100.00
42587;BME280;28216;53.362;-6.288;2023-06-22T06:53:35;101784.50;;;24.98;100.00
42587;BME280;28216;53.362;-6.288;2023-06-22T06:56:06;101772.78;;;25.93;100.00
42587;BME280;28216;53.362;-6.288;2023-06-22T06:58:36;101775.13;;;26.01;100.00
42587;BME280;28216;53.362;-6.288;2023-06-22T07:01:09;101772.31;;;25.84;100.00
42587;BME280;28216;53.362;-6.288;2023-06-22T07:03:38;101771.63;;;26.41;100.00
42587;BME280;28216;53.362;-6.288;2023-06-22T07:06:04;101779.91;;;26.79;100.00
42587;BME280;28216;53.362;-6.288;2023-06-22T07:08:37;101781.34;;;26.30;100.00
42587;BME280;28216;53.362;-6.288;2023-06-22T07:11:07;101781.00;;;26.26;100.00
42587;BME280;28216;53.362;-6.288;2023-06-22T07:13:38;101780.84;;;27.18;100.00
42587;BME280;28216;53.362;-6.288;2023-06-22T07:16:07;101774.81;;;27.11;100.00
42587;BME280;28216;53.362;-6.288;2023-06-22T07:18:40;101769.63;;;26.76;100.00
42587;BME280;28216;53.362;-6.288;2023-06-22T07:21:15;101777.34;;;25.81;100.00
42587;BME280;28216;53.362;-6.288;2023-06-22T07:23:43;101779.56;;;25.84;100.00
42587;BME280;28216;53.362;-6.288;2023-06-22T07:26:09;101776.63;;;26.09;100.00
42587;BME280;28216;53.362;-6.288;2023-06-22T07:28:39;101785.63;;;26.71;100.00
42587;BME280;28216;53.362;-6.288;2023-06-22T07:31:13;101768.66;;;26.82;100.00
42587;BME280;28216;53.362;-6.288;2023-06-22T07:33:45;101779.13;;;27.12;100.00
42587;BME280;28216;53.362;-6.288;2023-06-22T07:36:24;101784.03;;;26.42;100.00
42587;BME280;28216;53.362;-6.288;2023-06-22T07:38:49;101788.44;;;26.48;100.00
42587;BME280;28216;53.362;-6.288;2023-06-22T07:41:17;101788.84;;;26.28;100.00
42587;BME280;28216;53.362;-6.288;2023-06-22T07:43:44;101779.41;;;27.61;87.73
42587;BME280;28216;53.362;-6.288;2023-06-22T07:46:12;101791.84;;;27.34;93.85
42587;BME280;28216;53.362;-6.288;2023-06-22T07:48:41;101791.31;;;27.65;90.74
42587;BME280;28216;53.362;-6.288;2023-06-22T07:51:12;101793.09;;;27.26;97.93
42587;BME280;28216;53.362;-6.288;2023-06-22T07:53:41;101800.72;;;26.72;100.00
42587;BME280;28216;53.362;-6.288;2023-06-22T07:56:10;101782.53;;;26.34;100.00
42587;BME280;28216;53.362;-6.288;2023-06-22T07:58:40;101792.66;;;26.44;100.00
42587;BME280;28216;53.362;-6.288;2023-06-22T08:01:06;101784.25;;;26.97;93.56
42587;BME280;28216;53.362;-6.288;2023-06-22T08:03:37;101784.03;;;27.15;89.07
42587;BME280;28216;53.362;-6.288;2023-06-22T08:06:03;101788.47;;;26.65;100.00
42587;BME280;28216;53.362;-6.288;2023-06-22T08:08:49;101790.34;;;26.92;94.51
42587;BME280;28216;53.362;-6.288;2023-06-22T08:11:19;101793.44;;;26.84;92.78
42587;BME280;28216;53.362;-6.288;2023-06-22T08:13:47;101792.13;;;26.58;93.90
42587;BME280;28216;53.362;-6.288;2023-06-22T08:16:15;101796.41;;;26.31;95.30
42587;BME280;28216;53.362;-6.288;2023-06-22T08:18:48;101797.91;;;26.50;88.88
42587;BME280;28216;53.362;-6.288;2023-06-22T08:24:05;101804.31;;;25.97;85.96
42587;BME280;28216;53.362;-6.288;2023-06-22T08:26:39;101808.47;;;26.28;81.88
42587;BME280;28216;53.362;-6.288;2023-06-22T08:29:10;101801.19;;;26.81;73.21
42587;BME280;28216;53.362;-6.288;2023-06-22T08:31:40;101806.06;;;26.15;81.04
42587;BME280;28216;53.362;-6.288;2023-06-22T08:34:09;101803.50;;;25.97;88.00
42587;BME280;28216;53.362;-6.288;2023-06-22T08:36:40;101804.16;;;26.27;85.09
42587;BME280;28216;53.362;-6.288;2023-06-22T08:39:12;101803.38;;;26.04;85.89
42587;BME280;28216;53.362;-6.288;2023-06-22T08:45:05;101806.03;;;26.27;90.46
42587;BME280;28216;53.362;-6.288;2023-06-22T08:47:44;101807.56;;;26.35;86.90
42587;BME280;28216;53.362;-6.288;2023-06-22T08:50:15;101801.50;;;26.56;81.95
42587;BME280;28216;53.362;-6.288;2023-06-22T08:52:41;101801.50;;;26.84;76.75
42587;BME280;28216;53.362;-6.288;2023-06-22T08:55:07;101806.59;;;26.69;80.12
42587;BME280;28216;53.362;-6.288;2023-06-22T08:57:34;101804.28;;;26.61;81.95
42587;BME280;28216;53.362;-6.288;2023-06-22T09:00:00;101804.72;;;26.70;82.58
42587;BME280;28216;53.362;-6.288;2023-06-22T09:02:32;101810.34;;;26.40;85.26
42587;BME280;28216;53.362;-6.288;2023-06-22T09:04:58;101808.59;;;26.34;87.99
42587;BME280;28216;53.362;-6.288;2023-06-22T09:07:29;101813.25;;;26.38;89.04
42587;BME280;28216;53.362;-6.288;2023-06-22T09:09:55;101806.44;;;26.47;86.90
42587;BME280;28216;53.362;-6.288;2023-06-22T09:12:23;101805.16;;;26.50;86.72
42587;BME280;28216;53.362;-6.288;2023-06-22T09:14:54;101811.88;;;26.64;88.08
42587;BME280;28216;53.362;-6.288;2023-06-22T09:17:24;101815.47;;;26.70;84.26
42587;BME280;28216;53.362;-6.288;2023-06-22T09:19:53;101810.06;;;27.10;77.47
42587;BME280;28216;53.362;-6.288;2023-06-22T09:29:08;101811.31;;;26.62;76.16
42587;BME280;28216;53.362;-6.288;2023-06-22T09:31:58;101822.00;;;26.45;76.41
42587;BME280;28216;53.362;-6.288;2023-06-22T09:37:33;101808.50;;;26.17;84.03
42587;BME280;28216;53.362;-6.288;2023-06-22T09:40:16;101805.81;;;26.57;79.67
42587;BME280;28216;53.362;-6.288;2023-06-22T09:43:10;101799.06;;;26.54;76.76
42587;BME280;28216;53.362;-6.288;2023-06-22T09:45:50;101792.06;;;26.82;75.07
42587;BME280;28216;53.362;-6.288;2023-06-22T09:48:29;101797.38;;;26.65;74.54
42587;BME280;28216;53.362;-6.288;2023-06-22T09:50:57;101800.47;;;26.85;70.96
42587;BME280;28216;53.362;-6.288;2023-06-22T09:53:27;101792.63;;;26.84;71.53
42587;BME280;28216;53.362;-6.288;2023-06-22T09:56:00;101800.88;;;26.37;71.47
42587;BME280;28216;53.362;-6.288;2023-06-22T09:58:33;101795.06;;;26.57;73.56
42587;BME280;28216;53.362;-6.288;2023-06-22T10:00:58;101802.03;;;26.70;74.86
42587;BME280;28216;53.362;-6.288;2023-06-22T10:03:27;101800.69;;;26.55;70.67
42587;BME280;28216;53.362;-6.288;2023-06-22T10:05:52;101802.13;;;26.75;66.12
42587;BME280;28216;53.362;-6.288;2023-06-22T10:08:23;101804.97;;;26.68;64.90
42587;BME280;28216;53.362;-6.288;2023-06-22T10:10:58;101803.66;;;26.71;68.69
42587;BME280;28216;53.362;-6.288;2023-06-22T10:13:42;101813.03;;;26.28;65.97
42587;BME280;28216;53.362;-6.288;2023-06-22T10:23:35;101813.44;;;26.08;65.29
42587;BME280;28216;53.362;-6.288;2023-06-22T10:26:09;101809.59;;;26.04;66.37
42587;BME280;28216;53.362;-6.288;2023-06-22T10:29:13;101817.50;;;26.22;64.36
42587;BME280;28216;53.362;-6.288;2023-06-22T10:32:07;101820.66;;;26.19;65.47
42587;BME280;28216;53.362;-6.288;2023-06-22T10:41:43;101817.63;;;25.92;67.14
42587;BME280;28216;53.362;-6.288;2023-06-22T10:55:59;101829.06;;;25.53;64.84
42587;BME280;28216;53.362;-6.288;2023-06-22T10:58:24;101821.53;;;25.20;66.96
42587;BME280;28216;53.362;-6.288;2023-06-22T11:00:57;101824.38;;;25.37;65.47
42587;BME280;28216;53.362;-6.288;2023-06-22T11:03:26;101824.94;;;25.27;67.14
42587;BME280;28216;53.362;-6.288;2023-06-22T11:05:54;101828.88;;;25.24;68.24
42587;BME280;28216;53.362;-6.288;2023-06-22T11:08:23;101819.13;;;25.30;67.96
42587;BME280;28216;53.362;-6.288;2023-06-22T11:11:11;101828.69;;;25.38;68.54
42587;BME280;28216;53.362;-6.288;2023-06-22T11:13:52;101826.16;;;25.13;71.53
42587;BME280;28216;53.362;-6.288;2023-06-22T11:16:28;101826.66;;;24.91;74.17
42587;BME280;28216;53.362;-6.288;2023-06-22T11:19:03;101831.41;;;25.08;76.54
42587;BME280;28216;53.362;-6.288;2023-06-22T11:21:33;101828.25;;;25.11;75.83
42587;BME280;28216;53.362;-6.288;2023-06-22T11:24:02;101831.28;;;25.02;77.39
42587;BME280;28216;53.362;-6.288;2023-06-22T11:29:54;101835.28;;;25.23;75.22
42587;BME280;28216;53.362;-6.288;2023-06-22T11:35:54;101833.91;;;24.91;88.46
42587;BME280;28216;53.362;-6.288;2023-06-22T11:52:11;101829.88;;;25.53;89.30
42587;BME280;28216;53.362;-6.288;2023-06-22T11:54:42;101829.09;;;25.23;91.42
42587;BME280;28216;53.362;-6.288;2023-06-22T11:57:13;101826.03;;;25.08;94.42
42587;BME280;28216;53.362;-6.288;2023-06-22T11:59:41;101831.22;;;25.21;96.70
42587;BME280;28216;53.362;-6.288;2023-06-22T12:02:06;101842.63;;;24.86;100.00
42587;BME280;28216;53.362;-6.288;2023-06-22T12:04:35;101832.09;;;24.73;100.00
42587;BME280;28216;53.362;-6.288;2023-06-22T12:07:05;101843.34;;;24.63;100.00
42587;BME280;28216;53.362;-6.288;2023-06-22T12:13:55;101838.25;;;24.00;100.00
42587;BME280;28216;53.362;-6.288;2023-06-22T12:16:32;101851.25;;;24.40;100.00
42587;BME280;28216;53.362;-6.288;2023-06-22T12:26:10;101835.72;;;24.05;85.58
42587;BME280;28216;53.362;-6.288;2023-06-22T12:28:40;101834.03;;;24.11;84.50
42587;BME280;28216;53.362;-6.288;2023-06-22T12:31:08;101840.59;;;24.33;78.25
42587;BME280;28216;53.362;-6.288;2023-06-22T12:33:41;101833.56;;;24.14;80.20
42587;BME280;28216;53.362;-6.288;2023-06-22T12:36:11;101835.66;;;24.12;80.69
42587;BME280;28216;53.362;-6.288;2023-06-22T12:38:40;101834.78;;;24.18;93.64
42587;BME280;28216;53.362;-6.288;2023-06-22T12:41:10;101825.34;;;24.34;96.04
42587;BME280;28216;53.362;-6.288;2023-06-22T12:43:38;101840.63;;;23.90;100.00
42587;BME280;28216;53.362;-6.288;2023-06-22T12:46:29;101840.41;;;23.92;100.00
42587;BME280;28216;53.362;-6.288;2023-06-22T12:49:02;101855.50;;;23.86;100.00
42587;BME280;28216;53.362;-6.288;2023-06-22T12:51:33;101842.78;;;23.82;100.00
42587;BME280;28216;53.362;-6.288;2023-06-22T12:53:59;101850.16;;;24.04;100.00
42587;BME280;28216;53.362;-6.288;2023-06-22T12:56:29;101836.47;;;23.94;100.00
42587;BME280;28216;53.362;-6.288;2023-06-22T12:58:58;101843.75;;;23.87;100.00
42587;BME280;28216;53.362;-6.288;2023-06-22T13:01:35;101843.16;;;23.85;100.00
42587;BME280;28216;53.362;-6.288;2023-06-22T13:04:06;101837.66;;;23.73;100.00
42587;BME280;28216;53.362;-6.288;2023-06-22T13:06:34;101836.97;;;23.60;100.00
42587;BME280;28216;53.362;-6.288;2023-06-22T13:09:05;101829.38;;;23.57;100.00
42587;BME280;28216;53.362;-6.288;2023-06-22T13:11:30;101832.59;;;23.65;100.00
42587;BME280;28216;53.362;-6.288;2023-06-22T13:14:18;101831.63;;;23.60;100.00
42587;BME280;28216;53.362;-6.288;2023-06-22T13:16:49;101835.09;;;22.59;100.00
42587;BME280;28216;53.362;-6.288;2023-06-22T13:19:15;101830.38;;;22.99;100.00
42587;BME280;28216;53.362;-6.288;2023-06-22T13:21:43;101833.97;;;22.80;100.00
42587;BME280;28216;53.362;-6.288;2023-06-22T13:24:12;101836.75;;;22.98;100.00
42587;BME280;28216;53.362;-6.288;2023-06-22T13:26:40;101826.00;;;23.11;100.00
42587;BME280;28216;53.362;-6.288;2023-06-22T13:29:05;101830.38;;;22.99;100.00
42587;BME280;28216;53.362;-6.288;2023-06-22T13:31:36;101834.28;;;22.97;100.00
42587;BME280;28216;53.362;-6.288;2023-06-22T13:34:02;101828.81;;;22.85;100.00
42587;BME280;28216;53.362;-6.288;2023-06-22T13:36:28;101833.09;;;22.41;100.00
42587;BME280;28216;53.362;-6.288;2023-06-22T13:38:58;101819.84;;;22.66;100.00
42587;BME280;28216;53.362;-6.288;2023-06-22T13:41:31;101826.22;;;23.10;100.00
42587;BME280;28216;53.362;-6.288;2023-06-22T13:43:57;101819.06;;;22.97;100.00
42587;BME280;28216;53.362;-6.288;2023-06-22T13:46:22;101814.59;;;22.91;100.00
42587;BME280;28216;53.362;-6.288;2023-06-22T13:48:48;101819.38;;;22.76;100.00
42587;BME280;28216;53.362;-6.288;2023-06-22T13:51:13;101815.66;;;22.83;100.00
42587;BME280;28216;53.362;-6.288;2023-06-22T13:53:39;101814.84;;;22.76;100.00
42587;BME280;28216;53.362;-6.288;2023-06-22T13:56:08;101822.13;;;23.07;100.00
42587;BME280;28216;53.362;-6.288;2023-06-22T13:58:38;101815.63;;;22.45;100.00
42587;BME280;28216;53.362;-6.288;2023-06-22T14:01:11;101809.72;;;22.75;100.00
42587;BME280;28216;53.362;-6.288;2023-06-22T14:03:37;101807.34;;;22.98;100.00
42587;BME280;28216;53.362;-6.288;2023-06-22T14:06:12;101805.47;;;22.99;100.00
42587;BME280;28216;53.362;-6.288;2023-06-22T14:08:37;101810.06;;;22.92;100.00
42587;BME280;28216;53.362;-6.288;2023-06-22T14:11:03;101809.50;;;23.14;100.00
42587;BME280;28216;53.362;-6.288;2023-06-22T14:13:44;101804.16;;;22.76;100.00
42587;BME280;28216;53.362;-6.288;2023-06-22T14:16:33;101794.88;;;22.86;100.00
42587;BME280;28216;53.362;-6.288;2023-06-22T14:19:08;101793.66;;;22.81;100.00
42587;BME280;28216;53.362;-6.288;2023-06-22T14:21:36;101801.25;;;22.78;100.00